sensor_id;sensor_type;location;lat;lon;timestamp;temperature;humidity
52575;DHT22;38468;48.114;-1.684;2023-08-17T00:00:38;20.80;75.20
52575;DHT22;38468;48.114;-1.684;2023-08-17T00:02:39;20.80;75.10
52575;DHT22;38468;48.114;-1.684;2023-08-17T00:04:40;20.70;75.10
52575;DHT22;38468;48.114;-1.684;2023-08-17T00:06:41;20.70;75.00
52575;DHT22;38468;48.114;-1.684;2023-08-17T00:08:42;20.70;75.10
52575;DHT22;38468;48.114;-1.684;2023-08-17T00:10:43;20.70;75.30
52575;DHT22;38468;48.114;-1.684;2023-08-17T00:12:43;20.70;75.20
52575;DHT22;38468;48.114;-1.684;2023-08-17T00:14:44;20.70;75.10
52575;DHT22;38468;48.114;-1.684;2023-08-17T00:16:45;20.70;75.10
52575;DHT22;38468;48.114;-1.684;2023-08-17T00:18:45;20.70;75.10
52575;DHT22;38468;48.114;-1.684;2023-08-17T00:20:46;20.60;75.20
52575;DHT22;38468;48.114;-1.684;2023-08-17T00:22:47;20.70;75.30
52575;DHT22;38468;48.114;-1.684;2023-08-17T00:24:47;20.70;75.40
52575;DHT22;38468;48.114;-1.684;2023-08-17T00:26:48;20.70;75.20
52575;DHT22;38468;48.114;-1.684;2023-08-17T00:28:49;20.70;75.10
52575;DHT22;38468;48.114;-1.684;2023-08-17T00:30:50;20.70;74.80
52575;DHT22;38468;48.114;-1.684;2023-08-17T00:32:51;20.70;75.00
52575;DHT22;38468;48.114;-1.684;2023-08-17T00:34:52;20.70;75.10
52575;DHT22;38468;48.114;-1.684;2023-08-17T00:36:53;20.70;75.00
52575;DHT22;38468;48.114;-1.684;2023-08-17T00:38:54;20.60;75.20
52575;DHT22;38468;48.114;-1.684;2023-08-17T00:40:54;20.70;75.10
52575;DHT22;38468;48.114;-1.684;2023-08-17T00:42:55;20.60;75.10
52575;DHT22;38468;48.114;-1.684;2023-08-17T00:44:56;20.70;75.10
52575;DHT22;38468;48.114;-1.684;2023-08-17T00:46:57;20.60;75.20
52575;DHT22;38468;48.114;-1.684;2023-08-17T00:48:57;20.60;75.20
52575;DHT22;38468;48.114;-1.684;2023-08-17T00:50:59;20.60;75.40
52575;DHT22;38468;48.114;-1.684;2023-08-17T00:53:01;20.50;75.40
52575;DHT22;38468;48.114;-1.684;2023-08-17T00:55:02;20.60;75.30
52575;DHT22;38468;48.114;-1.684;2023-08-17T00:57:04;20.50;75.20
52575;DHT22;38468;48.114;-1.684;2023-08-17T00:59:06;20.50;75.00
52575;DHT22;38468;48.114;-1.684;2023-08-17T01:01:07;20.60;74.80
52575;DHT22;38468;48.114;-1.684;2023-08-17T01:03:08;20.60;74.60
52575;DHT22;38468;48.114;-1.684;2023-08-17T01:05:09;20.50;74.70
52575;DHT22;38468;48.114;-1.684;2023-08-17T01:07:09;20.50;74.90
52575;DHT22;38468;48.114;-1.684;2023-08-17T01:09:10;20.50;74.70
52575;DHT22;38468;48.114;-1.684;2023-08-17T01:13:44;20.50;74.50
52575;DHT22;38468;48.114;-1.684;2023-08-17T01:15:56;20.50;74.30
52575;DHT22;38468;48.114;-1.684;2023-08-17T01:18:13;20.50;74.30
52575;DHT22;38468;48.114;-1.684;2023-08-17T01:20:15;20.40;74.50
52575;DHT22;38468;48.114;-1.684;2023-08-17T01:22:21;20.40;74.40
52575;DHT22;38468;48.114;-1.684;2023-08-17T01:24:22;20.40;74.60
52575;DHT22;38468;48.114;-1.684;2023-08-17T01:26:23;20.40;74.50
52575;DHT22;38468;48.114;-1.684;2023-08-17T01:28:23;20.40;74.60
52575;DHT22;38468;48.114;-1.684;2023-08-17T01:30:24;20.40;74.60
52575;DHT22;38468;48.114;-1.684;2023-08-17T01:32:58;20.40;74.60
52575;DHT22;38468;48.114;-1.684;2023-08-17T01:35:32;20.40;74.90
52575;DHT22;38468;48.114;-1.684;2023-08-17T01:37:38;20.40;74.90
52575;DHT22;38468;48.114;-1.684;2023-08-17T01:39:43;20.40;74.60
52575;DHT22;38468;48.114;-1.684;2023-08-17T01:41:46;20.40;74.80
52575;DHT22;38468;48.114;-1.684;2023-08-17T01:43:47;20.30;75.20
52575;DHT22;38468;48.114;-1.684;2023-08-17T01:45:49;20.30;75.10
52575;DHT22;38468;48.114;-1.684;2023-08-17T01:47:49;20.30;75.20
52575;DHT22;38468;48.114;-1.684;2023-08-17T01:49:50;20.20;75.40
52575;DHT22;38468;48.114;-1.684;2023-08-17T01:51:51;20.30;75.20
52575;DHT22;38468;48.114;-1.684;2023-08-17T01:53:51;20.30;75.30
52575;DHT22;38468;48.114;-1.684;2023-08-17T01:55:52;20.30;75.30
52575;DHT22;38468;48.114;-1.684;2023-08-17T01:57:53;20.20;75.50
52575;DHT22;38468;48.114;-1.684;2023-08-17T01:59:53;20.20;75.50
52575;DHT22;38468;48.114;-1.684;2023-08-17T02:01:54;20.20;75.50
52575;DHT22;38468;48.114;-1.684;2023-08-17T02:03:55;20.10;75.60
52575;DHT22;38468;48.114;-1.684;2023-08-17T02:05:59;20.20;75.70
52575;DHT22;38468;48.114;-1.684;2023-08-17T02:07:59;20.20;75.40
52575;DHT22;38468;48.114;-1.684;2023-08-17T02:10:00;20.20;75.40
52575;DHT22;38468;48.114;-1.684;2023-08-17T02:12:01;20.20;75.50
52575;DHT22;38468;48.114;-1.684;2023-08-17T02:14:01;20.20;75.50
52575;DHT22;38468;48.114;-1.684;2023-08-17T02:16:03;20.10;75.60
52575;DHT22;38468;48.114;-1.684;2023-08-17T02:18:04;20.20;75.60
52575;DHT22;38468;48.114;-1.684;2023-08-17T02:20:05;20.20;75.50
52575;DHT22;38468;48.114;-1.684;2023-08-17T02:22:06;20.10;75.60
52575;DHT22;38468;48.114;-1.684;2023-08-17T02:24:06;20.10;75.80
52575;DHT22;38468;48.114;-1.684;2023-08-17T02:26:07;20.10;75.90
52575;DHT22;38468;48.114;-1.684;2023-08-17T02:28:08;20.10;75.90
52575;DHT22;38468;48.114;-1.684;2023-08-17T02:30:09;20.10;75.90
52575;DHT22;38468;48.114;-1.684;2023-08-17T02:32:09;20.00;75.90
52575;DHT22;38468;48.114;-1.684;2023-08-17T02:34:10;20.00;76.20
52575;DHT22;38468;48.114;-1.684;2023-08-17T02:36:11;20.00;76.30
52575;DHT22;38468;48.114;-1.684;2023-08-17T02:38:11;20.00;76.30
52575;DHT22;38468;48.114;-1.684;2023-08-17T02:40:12;19.90;76.40
52575;DHT22;38468;48.114;-1.684;2023-08-17T02:42:13;19.90;76.30
52575;DHT22;38468;48.114;-1.684;2023-08-17T02:44:13;19.90;76.50
52575;DHT22;38468;48.114;-1.684;2023-08-17T02:46:14;19.80;76.60
52575;DHT22;38468;48.114;-1.684;2023-08-17T02:48:15;19.80;76.70
52575;DHT22;38468;48.114;-1.684;2023-08-17T02:50:16;19.80;76.50
52575;DHT22;38468;48.114;-1.684;2023-08-17T02:52:16;19.90;76.50
52575;DHT22;38468;48.114;-1.684;2023-08-17T02:54:17;19.90;76.50
52575;DHT22;38468;48.114;-1.684;2023-08-17T02:56:18;19.90;76.50
52575;DHT22;38468;48.114;-1.684;2023-08-17T02:58:18;19.90;76.50
52575;DHT22;38468;48.114;-1.684;2023-08-17T03:00:19;19.70;76.90
52575;DHT22;38468;48.114;-1.684;2023-08-17T03:02:20;19.70;76.60
52575;DHT22;38468;48.114;-1.684;2023-08-17T03:04:20;19.80;76.70
52575;DHT22;38468;48.114;-1.684;2023-08-17T03:06:21;19.80;76.80
52575;DHT22;38468;48.114;-1.684;2023-08-17T03:08:22;19.70;76.80
52575;DHT22;38468;48.114;-1.684;2023-08-17T03:10:22;19.70;77.00
52575;DHT22;38468;48.114;-1.684;2023-08-17T03:12:25;19.60;77.30
52575;DHT22;38468;48.114;-1.684;2023-08-17T03:14:26;19.60;77.50
52575;DHT22;38468;48.114;-1.684;2023-08-17T03:16:27;19.50;77.60
52575;DHT22;38468;48.114;-1.684;2023-08-17T03:18:28;19.50;77.80
52575;DHT22;38468;48.114;-1.684;2023-08-17T03:20:28;19.50;77.50
52575;DHT22;38468;48.114;-1.684;2023-08-17T03:22:29;19.50;77.90
52575;DHT22;38468;48.114;-1.684;2023-08-17T03:24:29;19.50;78.00
52575;DHT22;38468;48.114;-1.684;2023-08-17T03:26:30;19.50;78.10
52575;DHT22;38468;48.114;-1.684;2023-08-17T03:28:31;19.50;78.00
52575;DHT22;38468;48.114;-1.684;2023-08-17T03:30:31;19.40;78.10
52575;DHT22;38468;48.114;-1.684;2023-08-17T03:32:32;19.40;78.10
52575;DHT22;38468;48.114;-1.684;2023-08-17T03:34:32;19.40;78.30
52575;DHT22;38468;48.114;-1.684;2023-08-17T03:36:33;19.40;78.20
52575;DHT22;38468;48.114;-1.684;2023-08-17T03:38:34;19.40;78.30
52575;DHT22;38468;48.114;-1.684;2023-08-17T03:40:34;19.40;78.30
52575;DHT22;38468;48.114;-1.684;2023-08-17T03:42:36;19.30;78.40
52575;DHT22;38468;48.114;-1.684;2023-08-17T03:44:37;19.30;78.60
52575;DHT22;38468;48.114;-1.684;2023-08-17T03:46:37;19.30;78.50
52575;DHT22;38468;48.114;-1.684;2023-08-17T03:48:38;19.30;78.60
52575;DHT22;38468;48.114;-1.684;2023-08-17T03:50:39;19.20;78.70
52575;DHT22;38468;48.114;-1.684;2023-08-17T03:52:39;19.30;78.60
52575;DHT22;38468;48.114;-1.684;2023-08-17T03:54:40;19.30;78.80
52575;DHT22;38468;48.114;-1.684;2023-08-17T03:56:40;19.20;78.80
52575;DHT22;38468;48.114;-1.684;2023-08-17T03:58:41;19.20;78.80
52575;DHT22;38468;48.114;-1.684;2023-08-17T04:00:49;19.20;79.00
52575;DHT22;38468;48.114;-1.684;2023-08-17T04:02:51;19.20;79.10
52575;DHT22;38468;48.114;-1.684;2023-08-17T04:04:51;19.20;78.80
52575;DHT22;38468;48.114;-1.684;2023-08-17T04:06:52;19.20;79.10
52575;DHT22;38468;48.114;-1.684;2023-08-17T04:08:52;19.20;78.90
52575;DHT22;38468;48.114;-1.684;2023-08-17T04:10:53;19.20;78.90
52575;DHT22;38468;48.114;-1.684;2023-08-17T04:12:54;19.20;78.90
52575;DHT22;38468;48.114;-1.684;2023-08-17T04:14:54;19.20;78.90
52575;DHT22;38468;48.114;-1.684;2023-08-17T04:16:55;19.20;79.00
52575;DHT22;38468;48.114;-1.684;2023-08-17T04:18:57;19.20;79.10
52575;DHT22;38468;48.114;-1.684;2023-08-17T04:20:57;19.30;78.70
52575;DHT22;38468;48.114;-1.684;2023-08-17T04:22:58;19.20;78.70
52575;DHT22;38468;48.114;-1.684;2023-08-17T04:24:58;19.20;78.90
52575;DHT22;38468;48.114;-1.684;2023-08-17T04:26:59;19.20;78.90
52575;DHT22;38468;48.114;-1.684;2023-08-17T04:29:00;19.30;79.10
52575;DHT22;38468;48.114;-1.684;2023-08-17T04:31:01;19.20;78.90
52575;DHT22;38468;48.114;-1.684;2023-08-17T04:33:01;19.20;79.10
52575;DHT22;38468;48.114;-1.684;2023-08-17T04:35:02;19.20;79.00
52575;DHT22;38468;48.114;-1.684;2023-08-17T04:37:03;19.20;79.10
52575;DHT22;38468;48.114;-1.684;2023-08-17T04:39:04;19.10;79.10
52575;DHT22;38468;48.114;-1.684;2023-08-17T04:41:04;19.10;79.20
52575;DHT22;38468;48.114;-1.684;2023-08-17T04:43:05;19.10;79.30
52575;DHT22;38468;48.114;-1.684;2023-08-17T04:45:06;19.10;79.40
52575;DHT22;38468;48.114;-1.684;2023-08-17T04:47:09;19.10;79.30
52575;DHT22;38468;48.114;-1.684;2023-08-17T04:49:09;19.20;79.30
52575;DHT22;38468;48.114;-1.684;2023-08-17T04:51:10;19.20;79.20
52575;DHT22;38468;48.114;-1.684;2023-08-17T04:53:11;19.20;79.20
52575;DHT22;38468;48.114;-1.684;2023-08-17T04:55:13;19.10;79.10
52575;DHT22;38468;48.114;-1.684;2023-08-17T04:57:13;19.10;79.30
52575;DHT22;38468;48.114;-1.684;2023-08-17T04:59:14;19.10;79.20
52575;DHT22;38468;48.114;-1.684;2023-08-17T05:01:15;19.00;79.20
52575;DHT22;38468;48.114;-1.684;2023-08-17T05:03:15;19.10;79.20
52575;DHT22;38468;48.114;-1.684;2023-08-17T05:05:16;19.10;78.90
52575;DHT22;38468;48.114;-1.684;2023-08-17T05:07:16;19.10;79.00
52575;DHT22;38468;48.114;-1.684;2023-08-17T05:09:17;19.00;79.10
52575;DHT22;38468;48.114;-1.684;2023-08-17T05:11:17;19.00;78.80
52575;DHT22;38468;48.114;-1.684;2023-08-17T05:13:19;19.10;78.90
52575;DHT22;38468;48.114;-1.684;2023-08-17T05:15:19;19.10;78.70
52575;DHT22;38468;48.114;-1.684;2023-08-17T05:17:20;19.10;78.80
52575;DHT22;38468;48.114;-1.684;2023-08-17T05:19:21;19.10;78.70
52575;DHT22;38468;48.114;-1.684;2023-08-17T05:21:21;19.00;78.80
52575;DHT22;38468;48.114;-1.684;2023-08-17T05:23:22;19.10;78.60
52575;DHT22;38468;48.114;-1.684;2023-08-17T05:25:23;19.10;78.90
52575;DHT22;38468;48.114;-1.684;2023-08-17T05:27:25;19.20;78.70
52575;DHT22;38468;48.114;-1.684;2023-08-17T05:29:26;19.10;78.70
52575;DHT22;38468;48.114;-1.684;2023-08-17T05:31:26;19.10;78.70
52575;DHT22;38468;48.114;-1.684;2023-08-17T05:33:27;19.20;78.60
52575;DHT22;38468;48.114;-1.684;2023-08-17T05:35:28;19.20;78.50
52575;DHT22;38468;48.114;-1.684;2023-08-17T05:37:28;19.20;78.40
52575;DHT22;38468;48.114;-1.684;2023-08-17T05:39:29;19.20;78.40
52575;DHT22;38468;48.114;-1.684;2023-08-17T05:41:30;19.20;78.40
52575;DHT22;38468;48.114;-1.684;2023-08-17T05:43:30;19.20;78.20
52575;DHT22;38468;48.114;-1.684;2023-08-17T05:45:31;19.20;78.20
52575;DHT22;38468;48.114;-1.684;2023-08-17T05:47:31;19.20;78.40
52575;DHT22;38468;48.114;-1.684;2023-08-17T05:49:32;19.20;78.10
52575;DHT22;38468;48.114;-1.684;2023-08-17T05:51:33;19.30;78.00
52575;DHT22;38468;48.114;-1.684;2023-08-17T05:53:33;19.30;78.10
52575;DHT22;38468;48.114;-1.684;2023-08-17T05:55:34;19.30;78.00
52575;DHT22;38468;48.114;-1.684;2023-08-17T05:57:35;19.30;78.00
52575;DHT22;38468;48.114;-1.684;2023-08-17T05:59:35;19.40;78.00
52575;DHT22;38468;48.114;-1.684;2023-08-17T06:01:36;19.40;78.00
52575;DHT22;38468;48.114;-1.684;2023-08-17T06:03:37;19.40;78.00
52575;DHT22;38468;48.114;-1.684;2023-08-17T06:05:39;19.30;78.10
52575;DHT22;38468;48.114;-1.684;2023-08-17T06:07:40;19.30;78.00
52575;DHT22;38468;48.114;-1.684;2023-08-17T06:09:40;19.30;78.00
52575;DHT22;38468;48.114;-1.684;2023-08-17T06:11:41;19.30;77.80
52575;DHT22;38468;48.114;-1.684;2023-08-17T06:13:42;19.20;78.10
52575;DHT22;38468;48.114;-1.684;2023-08-17T06:15:42;19.30;77.90
52575;DHT22;38468;48.114;-1.684;2023-08-17T06:17:43;19.30;78.20
52575;DHT22;38468;48.114;-1.684;2023-08-17T06:19:43;19.40;78.10
52575;DHT22;38468;48.114;-1.684;2023-08-17T06:21:44;19.40;78.10
52575;DHT22;38468;48.114;-1.684;2023-08-17T06:23:45;19.50;78.20
52575;DHT22;38468;48.114;-1.684;2023-08-17T06:25:45;19.50;78.10
52575;DHT22;38468;48.114;-1.684;2023-08-17T06:27:49;19.50;78.00
52575;DHT22;38468;48.114;-1.684;2023-08-17T06:29:49;19.60;78.00
52575;DHT22;38468;48.114;-1.684;2023-08-17T06:31:50;19.50;78.10
52575;DHT22;38468;48.114;-1.684;2023-08-17T06:33:51;19.60;77.90
52575;DHT22;38468;48.114;-1.684;2023-08-17T06:35:51;19.60;78.00
52575;DHT22;38468;48.114;-1.684;2023-08-17T06:37:52;19.80;77.90
52575;DHT22;38468;48.114;-1.684;2023-08-17T06:39:57;19.70;77.90
52575;DHT22;38468;48.114;-1.684;2023-08-17T06:41:57;19.70;78.00
52575;DHT22;38468;48.114;-1.684;2023-08-17T06:43:58;19.80;77.90
52575;DHT22;38468;48.114;-1.684;2023-08-17T06:45:58;19.80;77.70
52575;DHT22;38468;48.114;-1.684;2023-08-17T06:48:00;19.90;77.70
52575;DHT22;38468;48.114;-1.684;2023-08-17T06:50:01;20.00;77.50
52575;DHT22;38468;48.114;-1.684;2023-08-17T06:52:02;20.00;77.50
52575;DHT22;38468;48.114;-1.684;2023-08-17T06:54:02;20.00;77.50
52575;DHT22;38468;48.114;-1.684;2023-08-17T06:56:03;20.10;77.50
52575;DHT22;38468;48.114;-1.684;2023-08-17T06:58:04;20.20;77.40
52575;DHT22;38468;48.114;-1.684;2023-08-17T07:00:05;20.20;77.20
52575;DHT22;38468;48.114;-1.684;2023-08-17T07:02:06;20.20;77.20
52575;DHT22;38468;48.114;-1.684;2023-08-17T07:04:06;20.30;77.20
52575;DHT22;38468;48.114;-1.684;2023-08-17T07:06:08;20.40;77.30
52575;DHT22;38468;48.114;-1.684;2023-08-17T07:08:10;20.40;77.10
52575;DHT22;38468;48.114;-1.684;2023-08-17T07:10:11;20.50;76.60
52575;DHT22;38468;48.114;-1.684;2023-08-17T07:12:11;20.50;77.00
52575;DHT22;38468;48.114;-1.684;2023-08-17T07:14:12;20.60;76.80
52575;DHT22;38468;48.114;-1.684;2023-08-17T07:16:13;20.70;76.90
52575;DHT22;38468;48.114;-1.684;2023-08-17T07:18:13;20.70;76.40
52575;DHT22;38468;48.114;-1.684;2023-08-17T07:20:14;20.80;76.40
52575;DHT22;38468;48.114;-1.684;2023-08-17T07:22:15;20.80;75.90
52575;DHT22;38468;48.114;-1.684;2023-08-17T07:24:17;20.90;76.10
52575;DHT22;38468;48.114;-1.684;2023-08-17T07:26:17;21.00;75.80
52575;DHT22;38468;48.114;-1.684;2023-08-17T07:28:19;21.00;75.40
52575;DHT22;38468;48.114;-1.684;2023-08-17T07:30:20;21.10;75.70
52575;DHT22;38468;48.114;-1.684;2023-08-17T07:32:20;21.20;75.30
52575;DHT22;38468;48.114;-1.684;2023-08-17T07:34:21;21.20;75.20
52575;DHT22;38468;48.114;-1.684;2023-08-17T07:36:22;21.30;75.30
52575;DHT22;38468;48.114;-1.684;2023-08-17T07:38:22;21.30;75.00
52575;DHT22;38468;48.114;-1.684;2023-08-17T07:40:23;21.40;74.80
52575;DHT22;38468;48.114;-1.684;2023-08-17T07:42:23;21.50;74.80
52575;DHT22;38468;48.114;-1.684;2023-08-17T07:44:24;21.50;74.70
52575;DHT22;38468;48.114;-1.684;2023-08-17T07:46:25;21.60;74.10
52575;DHT22;38468;48.114;-1.684;2023-08-17T07:48:25;21.70;74.50
52575;DHT22;38468;48.114;-1.684;2023-08-17T07:50:26;21.80;74.40
52575;DHT22;38468;48.114;-1.684;2023-08-17T07:52:27;22.00;74.10
52575;DHT22;38468;48.114;-1.684;2023-08-17T07:54:27;22.00;74.40
52575;DHT22;38468;48.114;-1.684;2023-08-17T07:56:28;22.10;73.70
52575;DHT22;38468;48.114;-1.684;2023-08-17T07:58:29;22.20;73.60
52575;DHT22;38468;48.114;-1.684;2023-08-17T08:00:29;22.10;73.20
52575;DHT22;38468;48.114;-1.684;2023-08-17T08:02:30;22.30;73.70
52575;DHT22;38468;48.114;-1.684;2023-08-17T08:04:30;22.40;73.20
52575;DHT22;38468;48.114;-1.684;2023-08-17T08:06:31;22.50;72.80
52575;DHT22;38468;48.114;-1.684;2023-08-17T08:08:32;22.60;73.00
52575;DHT22;38468;48.114;-1.684;2023-08-17T08:10:32;22.60;72.50
52575;DHT22;38468;48.114;-1.684;2023-08-17T08:12:33;22.80;72.40
52575;DHT22;38468;48.114;-1.684;2023-08-17T08:14:35;22.90;72.30
52575;DHT22;38468;48.114;-1.684;2023-08-17T08:16:35;23.00;72.60
52575;DHT22;38468;48.114;-1.684;2023-08-17T08:18:36;23.00;72.50
52575;DHT22;38468;48.114;-1.684;2023-08-17T08:20:37;23.10;72.20
52575;DHT22;38468;48.114;-1.684;2023-08-17T08:22:38;23.20;72.30
52575;DHT22;38468;48.114;-1.684;2023-08-17T08:24:39;23.30;71.80
52575;DHT22;38468;48.114;-1.684;2023-08-17T08:26:41;23.40;71.80
52575;DHT22;38468;48.114;-1.684;2023-08-17T08:28:45;23.50;71.60
52575;DHT22;38468;48.114;-1.684;2023-08-17T08:30:46;23.50;71.50
52575;DHT22;38468;48.114;-1.684;2023-08-17T08:32:47;23.50;71.40
52575;DHT22;38468;48.114;-1.684;2023-08-17T08:34:47;23.50;72.00
52575;DHT22;38468;48.114;-1.684;2023-08-17T08:36:48;23.60;72.20
52575;DHT22;38468;48.114;-1.684;2023-08-17T08:38:49;23.70;71.60
52575;DHT22;38468;48.114;-1.684;2023-08-17T08:40:50;23.80;71.30
52575;DHT22;38468;48.114;-1.684;2023-08-17T08:42:51;23.90;71.90
52575;DHT22;38468;48.114;-1.684;2023-08-17T08:44:52;23.90;71.60
52575;DHT22;38468;48.114;-1.684;2023-08-17T08:46:54;24.00;71.60
52575;DHT22;38468;48.114;-1.684;2023-08-17T08:48:57;24.10;71.70
52575;DHT22;38468;48.114;-1.684;2023-08-17T08:51:00;24.20;71.00
52575;DHT22;38468;48.114;-1.684;2023-08-17T08:53:03;24.20;71.30
52575;DHT22;38468;48.114;-1.684;2023-08-17T08:55:17;24.40;70.80
52575;DHT22;38468;48.114;-1.684;2023-08-17T08:57:18;24.40;70.80
52575;DHT22;38468;48.114;-1.684;2023-08-17T08:59:20;24.50;70.70
52575;DHT22;38468;48.114;-1.684;2023-08-17T09:01:21;24.50;69.90
52575;DHT22;38468;48.114;-1.684;2023-08-17T09:03:22;24.50;70.30
52575;DHT22;38468;48.114;-1.684;2023-08-17T09:05:24;24.60;70.30
52575;DHT22;38468;48.114;-1.684;2023-08-17T09:07:26;24.70;70.30
52575;DHT22;38468;48.114;-1.684;2023-08-17T09:09:28;24.90;70.00
52575;DHT22;38468;48.114;-1.684;2023-08-17T09:11:28;24.90;70.40
52575;DHT22;38468;48.114;-1.684;2023-08-17T09:13:30;25.00;69.80
52575;DHT22;38468;48.114;-1.684;2023-08-17T09:15:31;25.00;69.80
52575;DHT22;38468;48.114;-1.684;2023-08-17T09:17:32;25.10;69.80
52575;DHT22;38468;48.114;-1.684;2023-08-17T09:19:36;25.30;69.40
52575;DHT22;38468;48.114;-1.684;2023-08-17T09:21:37;25.10;69.30
52575;DHT22;38468;48.114;-1.684;2023-08-17T09:23:39;25.20;70.00
52575;DHT22;38468;48.114;-1.684;2023-08-17T09:25:42;25.30;69.90
52575;DHT22;38468;48.114;-1.684;2023-08-17T09:27:43;25.50;69.40
52575;DHT22;38468;48.114;-1.684;2023-08-17T09:29:44;25.60;69.10
52575;DHT22;38468;48.114;-1.684;2023-08-17T09:31:46;25.80;69.30
52575;DHT22;38468;48.114;-1.684;2023-08-17T09:33:51;25.90;68.50
52575;DHT22;38468;48.114;-1.684;2023-08-17T09:35:53;25.80;67.80
52575;DHT22;38468;48.114;-1.684;2023-08-17T09:37:54;26.00;67.90
52575;DHT22;38468;48.114;-1.684;2023-08-17T09:39:55;26.00;67.70
52575;DHT22;38468;48.114;-1.684;2023-08-17T09:41:56;26.20;67.90
52575;DHT22;38468;48.114;-1.684;2023-08-17T09:43:56;26.30;67.60
52575;DHT22;38468;48.114;-1.684;2023-08-17T09:45:57;26.40;67.40
52575;DHT22;38468;48.114;-1.684;2023-08-17T09:48:01;26.60;67.50
52575;DHT22;38468;48.114;-1.684;2023-08-17T09:50:05;26.70;66.70
52575;DHT22;38468;48.114;-1.684;2023-08-17T09:52:06;26.80;67.10
52575;DHT22;38468;48.114;-1.684;2023-08-17T09:54:07;26.90;67.40
52575;DHT22;38468;48.114;-1.684;2023-08-17T09:56:09;26.90;66.60
52575;DHT22;38468;48.114;-1.684;2023-08-17T09:58:11;27.00;66.90
52575;DHT22;38468;48.114;-1.684;2023-08-17T10:00:16;27.10;66.00
52575;DHT22;38468;48.114;-1.684;2023-08-17T10:02:22;27.20;66.40
52575;DHT22;38468;48.114;-1.684;2023-08-17T10:04:23;27.10;65.40
52575;DHT22;38468;48.114;-1.684;2023-08-17T10:06:26;27.20;66.00
52575;DHT22;38468;48.114;-1.684;2023-08-17T10:08:31;27.20;65.60
52575;DHT22;38468;48.114;-1.684;2023-08-17T10:10:35;27.20;65.70
52575;DHT22;38468;48.114;-1.684;2023-08-17T10:12:44;27.20;65.10
52575;DHT22;38468;48.114;-1.684;2023-08-17T10:14:55;27.10;65.20
52575;DHT22;38468;48.114;-1.684;2023-08-17T10:17:07;27.00;65.10
52575;DHT22;38468;48.114;-1.684;2023-08-17T10:19:41;26.90;65.90
52575;DHT22;38468;48.114;-1.684;2023-08-17T10:21:50;27.00;66.20
52575;DHT22;38468;48.114;-1.684;2023-08-17T10:23:54;27.10;65.40
52575;DHT22;38468;48.114;-1.684;2023-08-17T10:25:55;27.30;65.20
52575;DHT22;38468;48.114;-1.684;2023-08-17T10:27:56;27.20;65.80
52575;DHT22;38468;48.114;-1.684;2023-08-17T10:29:58;27.10;65.60
52575;DHT22;38468;48.114;-1.684;2023-08-17T10:32:01;27.30;65.30
52575;DHT22;38468;48.114;-1.684;2023-08-17T10:34:02;27.20;65.30
52575;DHT22;38468;48.114;-1.684;2023-08-17T10:36:03;27.30;65.60
52575;DHT22;38468;48.114;-1.684;2023-08-17T10:38:04;27.40;65.50
52575;DHT22;38468;48.114;-1.684;2023-08-17T10:40:05;27.50;64.90
52575;DHT22;38468;48.114;-1.684;2023-08-17T10:42:06;27.60;65.30
52575;DHT22;38468;48.114;-1.684;2023-08-17T10:44:07;27.80;65.20
52575;DHT22;38468;48.114;-1.684;2023-08-17T10:46:15;28.00;65.30
52575;DHT22;38468;48.114;-1.684;2023-08-17T10:50:22;27.90;63.90
52575;DHT22;38468;48.114;-1.684;2023-08-17T10:52:50;28.00;63.00
52575;DHT22;38468;48.114;-1.684;2023-08-17T10:54:51;28.20;62.80
52575;DHT22;38468;48.114;-1.684;2023-08-17T10:56:51;28.20;62.00
52575;DHT22;38468;48.114;-1.684;2023-08-17T10:58:52;28.30;61.70
52575;DHT22;38468;48.114;-1.684;2023-08-17T11:00:56;28.30;61.70
52575;DHT22;38468;48.114;-1.684;2023-08-17T11:03:17;28.40;61.30
52575;DHT22;38468;48.114;-1.684;2023-08-17T11:07:41;28.60;61.60
52575;DHT22;38468;48.114;-1.684;2023-08-17T11:09:42;28.50;60.20
52575;DHT22;38468;48.114;-1.684;2023-08-17T11:11:52;28.40;60.80
52575;DHT22;38468;48.114;-1.684;2023-08-17T11:13:54;28.50;60.30
52575;DHT22;38468;48.114;-1.684;2023-08-17T11:15:55;28.60;60.60
52575;DHT22;38468;48.114;-1.684;2023-08-17T11:17:55;28.60;60.90
52575;DHT22;38468;48.114;-1.684;2023-08-17T11:19:56;28.60;60.50
52575;DHT22;38468;48.114;-1.684;2023-08-17T11:21:56;28.30;61.40
52575;DHT22;38468;48.114;-1.684;2023-08-17T11:23:57;28.40;61.10
52575;DHT22;38468;48.114;-1.684;2023-08-17T11:25:58;28.50;61.50
52575;DHT22;38468;48.114;-1.684;2023-08-17T11:28:00;28.60;61.30
52575;DHT22;38468;48.114;-1.684;2023-08-17T11:30:01;28.50;60.10
52575;DHT22;38468;48.114;-1.684;2023-08-17T11:32:03;28.60;60.90
52575;DHT22;38468;48.114;-1.684;2023-08-17T11:34:04;28.50;60.20
52575;DHT22;38468;48.114;-1.684;2023-08-17T11:36:07;28.50;60.80
52575;DHT22;38468;48.114;-1.684;2023-08-17T11:38:08;28.40;60.30
52575;DHT22;38468;48.114;-1.684;2023-08-17T11:40:11;28.60;61.00
52575;DHT22;38468;48.114;-1.684;2023-08-17T11:42:11;28.60;60.00
52575;DHT22;38468;48.114;-1.684;2023-08-17T11:44:12;28.80;60.30
52575;DHT22;38468;48.114;-1.684;2023-08-17T11:46:13;28.80;60.70
52575;DHT22;38468;48.114;-1.684;2023-08-17T11:48:14;28.80;59.10
52575;DHT22;38468;48.114;-1.684;2023-08-17T11:50:24;28.80;60.10
52575;DHT22;38468;48.114;-1.684;2023-08-17T11:52:29;28.90;59.90
52575;DHT22;38468;48.114;-1.684;2023-08-17T11:54:40;29.00;59.40
52575;DHT22;38468;48.114;-1.684;2023-08-17T11:56:41;29.00;60.40
52575;DHT22;38468;48.114;-1.684;2023-08-17T11:58:42;28.90;59.70
52575;DHT22;38468;48.114;-1.684;2023-08-17T12:00:44;28.70;59.20
52575;DHT22;38468;48.114;-1.684;2023-08-17T12:02:51;28.60;59.80
52575;DHT22;38468;48.114;-1.684;2023-08-17T12:04:53;28.60;59.60
52575;DHT22;38468;48.114;-1.684;2023-08-17T12:06:56;28.60;59.80
52575;DHT22;38468;48.114;-1.684;2023-08-17T12:08:57;28.60;59.50
52575;DHT22;38468;48.114;-1.684;2023-08-17T12:10:58;28.50;59.90
52575;DHT22;38468;48.114;-1.684;2023-08-17T12:13:02;28.50;60.10
52575;DHT22;38468;48.114;-1.684;2023-08-17T12:15:04;28.70;59.90
52575;DHT22;38468;48.114;-1.684;2023-08-17T12:17:04;28.80;59.90
52575;DHT22;38468;48.114;-1.684;2023-08-17T12:19:05;28.60;60.30
52575;DHT22;38468;48.114;-1.684;2023-08-17T12:21:06;28.60;60.20
52575;DHT22;38468;48.114;-1.684;2023-08-17T12:23:06;28.50;60.00
52575;DHT22;38468;48.114;-1.684;2023-08-17T12:25:08;28.60;60.10
52575;DHT22;38468;48.114;-1.684;2023-08-17T12:27:09;28.60;59.80
52575;DHT22;38468;48.114;-1.684;2023-08-17T12:29:10;28.60;59.20
52575;DHT22;38468;48.114;-1.684;2023-08-17T12:31:10;28.50;59.10
52575;DHT22;38468;48.114;-1.684;2023-08-17T12:33:11;28.50;59.00
52575;DHT22;38468;48.114;-1.684;2023-08-17T12:35:11;28.60;58.80
52575;DHT22;38468;48.114;-1.684;2023-08-17T12:37:17;28.80;59.10
52575;DHT22;38468;48.114;-1.684;2023-08-17T12:39:18;28.80;58.00
52575;DHT22;38468;48.114;-1.684;2023-08-17T12:41:19;28.80;57.70
52575;DHT22;38468;48.114;-1.684;2023-08-17T12:43:20;28.80;58.00